createdAt,value
2023-10-10T00:00:08.718Z,231.50
2023-10-10T00:01:12.349Z,230.33
2023-10-10T00:02:21.706Z,227.00
2023-10-10T00:03:28.564Z,224.83
2023-10-10T00:04:34.314Z,225.00
2023-10-10T00:05:37.929Z,222.83
2023-10-10T00:06:42.108Z,217.33
2023-10-10T00:07:45.783Z,213.33
2023-10-10T00:08:51.502Z,209.50
2023-10-10T00:09:54.602Z,212.33
2023-10-10T00:10:57.608Z,214.50
2023-10-10T00:12:00.602Z,216.33
2023-10-10T00:13:08.768Z,218.17
2023-10-10T00:14:18.975Z,223.00
2023-10-10T00:15:27.579Z,227.83
2023-10-10T00:16:37.743Z,230.17
2023-10-10T00:17:42.402Z,232.33
2023-10-10T00:18:46.146Z,232.17
2023-10-10T00:19:53.853Z,228.83
2023-10-10T00:21:09.774Z,221.67
2023-10-10T00:22:13.477Z,217.17
2023-10-10T00:23:18.413Z,211.00
2023-10-10T00:24:22.365Z,208.50
2023-10-10T00:25:32.100Z,207.50
2023-10-10T00:26:35.847Z,207.33
2023-10-10T00:27:40.992Z,206.17
2023-10-10T00:28:46.521Z,206.83
2023-10-10T00:29:50.219Z,207.00
2023-10-10T00:30:53.830Z,207.00
2023-10-10T00:31:57.070Z,205.83
2023-10-10T00:33:04.111Z,204.17
2023-10-10T00:34:08.571Z,204.00
2023-10-10T00:35:11.648Z,201.33
2023-10-10T00:36:23.786Z,196.00
2023-10-10T00:37:35.827Z,193.67
2023-10-10T00:38:39.198Z,194.67
2023-10-10T00:39:42.239Z,192.67
2023-10-10T00:40:48.560Z,191.00
2023-10-10T00:41:51.572Z,189.50
2023-10-10T00:42:54.682Z,188.00
2023-10-10T00:43:57.721Z,187.83
2023-10-10T00:45:05.573Z,188.00
2023-10-10T00:46:12.717Z,188.00
2023-10-10T00:47:27.893Z,188.00
2023-10-10T00:48:31.498Z,187.67
2023-10-10T00:49:38.455Z,187.00
2023-10-10T00:50:43.372Z,186.00
2023-10-10T00:51:48.391Z,184.67
2023-10-10T00:52:56.920Z,182.17
2023-10-10T00:54:27.775Z,182.17
2023-10-10T00:55:34.760Z,183.00
2023-10-10T00:56:38.281Z,183.33
2023-10-10T00:57:41.840Z,183.83
2023-10-10T00:58:47.332Z,184.00
2023-10-10T00:59:55.849Z,183.17
2023-10-10T01:00:59.743Z,183.00
2023-10-10T01:02:11.655Z,184.00
2023-10-10T01:03:23.554Z,184.00
2023-10-10T01:04:55.790Z,183.17
2023-10-10T01:05:59.757Z,180.17
2023-10-10T01:07:09.880Z,180.00
2023-10-10T01:08:18.390Z,180.00
2023-10-10T01:09:34.726Z,180.33
2023-10-10T01:10:50.806Z,181.00
2023-10-10T01:11:54.332Z,181.33
2023-10-10T01:12:57.347Z,182.00
2023-10-10T01:14:01.325Z,182.67
2023-10-10T01:15:14.032Z,183.00
2023-10-10T01:16:18.956Z,183.00
2023-10-10T01:17:32.334Z,183.50
2023-10-10T01:18:52.925Z,183.00
2023-10-10T01:20:00.254Z,182.00
2023-10-10T01:21:04.189Z,179.67
2023-10-10T01:22:23.668Z,177.33
2023-10-10T01:23:29.500Z,177.00
2023-10-10T01:24:32.879Z,176.50
2023-10-10T01:25:35.931Z,174.50
2023-10-10T01:26:45.405Z,173.00
2023-10-10T01:27:48.407Z,172.83
2023-10-10T01:28:51.386Z,170.00
2023-10-10T01:30:19.233Z,167.83
2023-10-10T01:31:22.262Z,166.83
2023-10-10T01:32:25.315Z,166.67
2023-10-10T01:33:42.903Z,166.67
2023-10-10T01:34:46.114Z,160.83
2023-10-10T01:35:51.085Z,156.67
2023-10-10T01:36:54.071Z,156.50
2023-10-10T01:37:57.119Z,156.67
2023-10-10T01:39:11.141Z,157.67
2023-10-10T01:40:17.432Z,158.50
2023-10-10T01:41:24.334Z,159.33
2023-10-10T01:42:47.860Z,160.00
2023-10-10T01:43:55.351Z,160.50
2023-10-10T01:45:09.283Z,161.00
2023-10-10T01:46:39.512Z,162.33
2023-10-10T01:47:43.019Z,165.33
2023-10-10T01:48:46.953Z,167.33
2023-10-10T01:49:49.959Z,168.00
2023-10-10T01:50:52.948Z,168.00
2023-10-10T01:52:05.141Z,168.00
2023-10-10T01:53:11.147Z,169.67
2023-10-10T01:54:16.698Z,170.00
2023-10-10T01:55:19.938Z,169.67
2023-10-10T01:56:24.766Z,167.33
2023-10-10T01:57:27.787Z,163.17
2023-10-10T01:58:30.848Z,161.67
2023-10-10T01:59:37.104Z,161.00
2023-10-10T02:00:44.721Z,161.00
2023-10-10T02:01:49.080Z,161.00
2023-10-10T02:02:54.467Z,161.00
2023-10-10T02:03:57.747Z,161.83
2023-10-10T02:05:01.393Z,162.00
2023-10-10T02:06:05.121Z,162.17
2023-10-10T02:07:15.527Z,164.17
2023-10-10T02:08:18.734Z,168.67
2023-10-10T02:09:27.340Z,170.83
2023-10-10T02:10:31.442Z,173.33
2023-10-10T02:11:34.432Z,174.00
2023-10-10T02:12:37.433Z,174.00
2023-10-10T02:13:40.868Z,174.00
2023-10-10T02:14:44.507Z,174.67
2023-10-10T02:15:47.528Z,176.00
2023-10-10T02:16:51.173Z,176.33
2023-10-10T02:17:56.912Z,177.67
2023-10-10T02:19:00.572Z,178.50
2023-10-10T02:20:23.201Z,179.00
2023-10-10T02:21:44.461Z,179.50
2023-10-10T02:22:49.142Z,180.00
2023-10-10T02:23:55.124Z,179.00
2023-10-10T02:25:16.625Z,177.50
2023-10-10T02:26:29.651Z,174.67
2023-10-10T02:27:34.364Z,173.00
2023-10-10T02:28:50.157Z,172.67
2023-10-10T02:29:54.719Z,173.00
2023-10-10T02:31:03.764Z,172.33
2023-10-10T02:32:14.503Z,172.00
2023-10-10T02:33:20.460Z,172.00
2023-10-10T02:34:23.666Z,171.17
2023-10-10T02:35:35.137Z,171.67
2023-10-10T02:36:42.324Z,172.00
2023-10-10T02:37:47.315Z,172.00
2023-10-10T02:38:59.090Z,172.33
2023-10-10T02:40:13.536Z,173.00
2023-10-10T02:41:24.422Z,172.67
2023-10-10T02:42:29.013Z,173.00
2023-10-10T02:43:35.200Z,173.00
2023-10-10T02:44:38.255Z,173.50
2023-10-10T02:45:46.107Z,174.83
2023-10-10T02:46:49.312Z,176.00
2023-10-10T02:47:54.975Z,176.00
2023-10-10T02:48:57.956Z,176.00
2023-10-10T02:50:11.591Z,176.83
2023-10-10T02:51:17.755Z,178.33
2023-10-10T02:52:26.084Z,179.00
2023-10-10T02:53:33.576Z,179.83
2023-10-10T02:54:44.803Z,181.50
2023-10-10T02:55:53.661Z,182.00
2023-10-10T02:57:26.950Z,180.83
2023-10-10T02:58:39.295Z,180.00
2023-10-10T02:59:45.027Z,180.33
2023-10-10T03:00:53.745Z,181.00
2023-10-10T03:02:00.776Z,181.00
2023-10-10T03:03:04.609Z,180.00
2023-10-10T03:04:09.929Z,180.00
2023-10-10T03:05:21.917Z,180.00
2023-10-10T03:06:29.734Z,178.83
2023-10-10T03:07:33.829Z,177.33
2023-10-10T03:08:38.754Z,177.00
2023-10-10T03:10:05.052Z,177.00
2023-10-10T03:11:36.721Z,177.00
2023-10-10T03:12:39.898Z,177.00
2023-10-10T03:13:55.725Z,177.00
2023-10-10T03:15:35.503Z,177.00
2023-10-10T03:17:00.899Z,176.83
2023-10-10T03:18:10.220Z,176.00
2023-10-10T03:19:13.373Z,176.00
2023-10-10T03:20:32.339Z,175.33
2023-10-10T03:22:04.781Z,176.00
2023-10-10T03:23:13.870Z,176.67
2023-10-10T03:24:24.307Z,177.00
2023-10-10T03:25:38.326Z,175.67
2023-10-10T03:26:47.347Z,172.33
2023-10-10T03:27:52.643Z,169.83
2023-10-10T03:29:05.057Z,167.50
2023-10-10T03:30:21.605Z,168.67
2023-10-10T03:31:32.955Z,169.00
2023-10-10T03:32:57.169Z,167.83
2023-10-10T03:35:35.542Z,165.00
2023-10-10T03:37:04.617Z,163.33
2023-10-10T03:38:27.684Z,157.67
2023-10-10T03:39:44.882Z,158.00
2023-10-10T03:41:06.125Z,159.17
2023-10-10T03:42:29.980Z,160.83
2023-10-10T03:43:51.896Z,164.17
2023-10-10T03:45:13.763Z,168.33
2023-10-10T03:46:54.889Z,174.33
2023-10-10T03:48:16.491Z,174.00
2023-10-10T03:49:41.174Z,174.00
2023-10-10T03:51:04.302Z,173.17
2023-10-10T03:52:25.531Z,172.17
2023-10-10T03:53:47.328Z,172.00
2023-10-10T03:55:08.976Z,172.00
2023-10-10T03:56:37.913Z,171.00
2023-10-10T03:57:59.326Z,171.00
2023-10-10T03:59:22.100Z,171.17
2023-10-10T04:00:43.568Z,171.67
2023-10-10T04:02:05.033Z,172.00
2023-10-10T04:03:26.627Z,172.00
2023-10-10T04:04:48.204Z,172.83
2023-10-10T04:06:10.807Z,177.17
2023-10-10T04:07:32.429Z,182.83
2023-10-10T04:08:53.818Z,183.67
2023-10-10T04:10:15.289Z,184.67
2023-10-10T04:11:37.045Z,186.83
2023-10-10T04:12:58.636Z,188.00
2023-10-10T04:14:20.146Z,188.00
2023-10-10T04:15:41.666Z,188.33
2023-10-10T04:17:03.756Z,188.00
2023-10-10T04:18:25.362Z,187.33
2023-10-10T04:19:47.460Z,186.17
2023-10-10T04:21:08.943Z,186.00
2023-10-10T04:22:30.387Z,186.00
2023-10-10T04:23:51.873Z,186.67
2023-10-10T04:25:13.482Z,189.00
2023-10-10T04:26:35.208Z,189.00
2023-10-10T04:27:56.720Z,189.17
2023-10-10T04:29:18.217Z,191.00
2023-10-10T04:30:39.798Z,191.83
2023-10-10T04:32:01.496Z,192.00
2023-10-10T04:33:23.011Z,192.67
2023-10-10T04:34:44.452Z,193.00
2023-10-10T04:36:05.843Z,193.00
2023-10-10T04:37:27.406Z,193.67
2023-10-10T04:38:48.872Z,196.67
2023-10-10T04:40:10.304Z,217.50
2023-10-10T04:41:33.083Z,254.67
2023-10-10T04:42:54.651Z,249.17
2023-10-10T04:44:18.619Z,225.50
2023-10-10T04:45:40.210Z,219.50
2023-10-10T04:47:01.897Z,206.50
2023-10-10T04:48:24.462Z,201.33
2023-10-10T04:49:46.306Z,198.67
2023-10-10T04:51:11.651Z,197.83
2023-10-10T04:52:33.062Z,192.50
2023-10-10T04:53:55.021Z,185.33
2023-10-10T04:55:16.524Z,184.83
2023-10-10T04:56:39.744Z,187.00
2023-10-10T04:58:01.056Z,189.17
2023-10-10T04:59:22.468Z,199.17
2023-10-10T05:00:43.603Z,222.67
2023-10-10T05:02:04.799Z,214.50
2023-10-10T05:03:26.592Z,210.17
2023-10-10T05:04:48.217Z,193.00
2023-10-10T05:06:20.050Z,188.17
2023-10-10T05:07:41.270Z,191.17
2023-10-10T05:09:03.043Z,199.33
2023-10-10T05:10:24.702Z,201.67
2023-10-10T05:11:46.604Z,196.83
2023-10-10T05:13:08.269Z,191.00
2023-10-10T05:14:29.506Z,188.67
2023-10-10T05:15:51.490Z,189.67
2023-10-10T05:17:13.154Z,191.17
2023-10-10T05:18:34.957Z,193.17
2023-10-10T05:19:56.190Z,195.00
2023-10-10T05:21:17.494Z,195.17
2023-10-10T05:22:38.720Z,196.50
2023-10-10T05:23:49.051Z,197.33
2023-10-10T05:24:56.398Z,199.33
2023-10-10T05:26:00.885Z,216.50
2023-10-10T05:27:03.963Z,227.83
2023-10-10T05:28:06.970Z,222.50
2023-10-10T05:29:11.944Z,218.00
2023-10-10T05:30:26.669Z,216.33
2023-10-10T05:31:32.321Z,216.50
2023-10-10T05:32:35.590Z,215.17
2023-10-10T05:33:38.613Z,214.17
2023-10-10T05:34:42.180Z,213.50
2023-10-10T05:35:45.388Z,212.33
2023-10-10T05:36:49.334Z,211.67
2023-10-10T05:37:52.294Z,210.00
2023-10-10T05:38:55.282Z,212.33
2023-10-10T05:39:59.392Z,213.83
2023-10-10T05:41:04.195Z,212.50
2023-10-10T05:42:10.012Z,210.67
2023-10-10T05:43:20.486Z,208.17
2023-10-10T05:44:23.516Z,206.33
2023-10-10T05:45:26.856Z,203.00
2023-10-10T05:46:31.856Z,202.00
2023-10-10T05:47:37.152Z,202.00
2023-10-10T05:48:40.687Z,202.00
2023-10-10T05:49:43.715Z,202.00
2023-10-10T05:50:49.586Z,202.00
2023-10-10T05:51:53.211Z,201.50
2023-10-10T05:52:56.313Z,201.00
2023-10-10T05:53:59.325Z,200.83
2023-10-10T05:55:02.327Z,201.00
2023-10-10T05:56:14.723Z,201.00
2023-10-10T05:57:18.117Z,201.00
2023-10-10T05:58:24.394Z,201.00
2023-10-10T05:59:29.813Z,201.00
2023-10-10T06:00:43.273Z,201.00
2023-10-10T06:01:46.286Z,201.50
2023-10-10T06:02:49.316Z,213.83
2023-10-10T06:03:52.684Z,234.33
2023-10-10T06:04:55.790Z,231.83
2023-10-10T06:05:59.746Z,227.67
2023-10-10T06:07:04.832Z,225.00
2023-10-10T06:08:08.193Z,223.33
2023-10-10T06:09:20.242Z,221.67
2023-10-10T06:10:30.003Z,219.83
2023-10-10T06:11:35.575Z,214.50
2023-10-10T06:12:41.272Z,207.83
2023-10-10T06:13:47.952Z,204.17
2023-10-10T06:14:51.089Z,204.00
2023-10-10T06:15:54.092Z,204.00
2023-10-10T06:16:57.154Z,204.00
2023-10-10T06:18:09.651Z,203.50
2023-10-10T06:19:22.116Z,202.00
2023-10-10T06:20:25.699Z,202.00
2023-10-10T06:21:30.886Z,202.00
2023-10-10T06:22:34.123Z,202.00
2023-10-10T06:23:37.199Z,202.00
2023-10-10T06:24:40.503Z,202.00
2023-10-10T06:25:44.786Z,202.00
2023-10-10T06:26:49.005Z,202.00
2023-10-10T06:27:55.558Z,210.83
2023-10-10T06:28:58.580Z,218.33
2023-10-10T06:30:01.599Z,217.50
2023-10-10T06:31:11.707Z,216.00
2023-10-10T06:32:17.407Z,214.00
2023-10-10T06:33:31.114Z,205.67
2023-10-10T06:34:38.177Z,191.00
2023-10-10T06:35:41.417Z,190.00
2023-10-10T06:36:49.051Z,191.50
2023-10-10T06:37:54.774Z,192.67
2023-10-10T06:39:06.740Z,193.00
2023-10-10T06:40:11.055Z,193.00
2023-10-10T06:41:19.287Z,193.83
2023-10-10T06:42:28.620Z,193.67
2023-10-10T06:43:34.521Z,192.83
2023-10-10T06:44:40.609Z,193.00
2023-10-10T06:46:49.374Z,193.83
2023-10-10T06:47:53.582Z,192.50
2023-10-10T06:49:05.598Z,189.00
2023-10-10T06:50:15.229Z,188.00
2023-10-10T06:51:23.481Z,186.17
2023-10-10T06:52:28.924Z,185.00
2023-10-10T06:53:38.024Z,185.00
2023-10-10T06:54:45.945Z,181.33
2023-10-10T06:55:48.945Z,177.17
2023-10-10T06:57:01.036Z,171.83
2023-10-10T06:58:06.705Z,172.00
2023-10-10T06:59:17.895Z,173.83
2023-10-10T07:00:29.812Z,175.50
2023-10-10T07:01:33.046Z,176.83
2023-10-10T07:02:41.629Z,177.50
2023-10-10T07:03:48.292Z,178.67
2023-10-10T07:04:54.140Z,180.50
2023-10-10T07:05:57.932Z,182.83
2023-10-10T07:07:07.201Z,184.00
2023-10-10T07:08:26.219Z,184.00
2023-10-10T07:09:30.357Z,184.00
2023-10-10T07:10:37.788Z,184.00
2023-10-10T07:11:40.899Z,184.00
2023-10-10T07:12:48.571Z,185.00
2023-10-10T07:14:00.086Z,185.83
2023-10-10T07:15:07.829Z,186.67
2023-10-10T07:16:11.020Z,187.00
2023-10-10T07:17:17.227Z,186.50
2023-10-10T07:18:23.899Z,186.00
2023-10-10T07:19:32.771Z,186.00
2023-10-10T07:20:55.796Z,185.33
2023-10-10T07:22:01.663Z,185.00
2023-10-10T07:23:08.560Z,185.00
2023-10-10T07:24:15.399Z,185.00
2023-10-10T07:25:44.631Z,183.83
2023-10-10T07:27:00.086Z,182.00
2023-10-10T07:28:05.767Z,173.67
2023-10-10T07:29:29.089Z,163.00
2023-10-10T07:30:35.769Z,165.33
2023-10-10T07:31:41.642Z,164.67
2023-10-10T07:32:49.675Z,159.83
2023-10-10T07:33:58.020Z,159.50
2023-10-10T07:35:01.392Z,158.00
2023-10-10T07:36:06.720Z,157.17
2023-10-10T07:37:10.820Z,158.17
2023-10-10T07:38:16.929Z,159.00
2023-10-10T07:39:40.151Z,159.17
2023-10-10T07:40:43.480Z,160.17
2023-10-10T07:41:46.855Z,161.17
2023-10-10T07:42:51.770Z,163.00
2023-10-10T07:44:00.781Z,166.50
2023-10-10T07:45:04.759Z,169.17
2023-10-10T07:46:23.795Z,171.83
2023-10-10T07:47:28.362Z,172.67
2023-10-10T07:48:37.647Z,174.33
2023-10-10T07:49:51.908Z,175.83
2023-10-10T07:51:07.591Z,177.33
2023-10-10T07:52:17.968Z,180.17
2023-10-10T07:53:21.308Z,180.67
2023-10-10T07:54:43.116Z,180.67
2023-10-10T07:56:02.492Z,179.67
2023-10-10T07:57:08.717Z,174.83
2023-10-10T07:58:11.875Z,172.50
2023-10-10T07:59:18.014Z,170.17
2023-10-10T08:00:28.028Z,166.00
2023-10-10T08:01:31.102Z,166.33
2023-10-10T08:02:36.124Z,167.00
2023-10-10T08:03:45.656Z,167.00
2023-10-10T08:04:51.097Z,167.33
2023-10-10T08:05:54.080Z,168.00
2023-10-10T08:06:58.582Z,168.67
2023-10-10T08:08:06.110Z,168.00
2023-10-10T08:09:17.997Z,167.00
2023-10-10T08:10:31.282Z,166.50
2023-10-10T08:11:37.854Z,161.83
2023-10-10T08:12:42.903Z,157.00
2023-10-10T08:13:49.995Z,155.83
2023-10-10T08:15:00.725Z,156.33
2023-10-10T08:16:04.589Z,157.00
2023-10-10T08:17:20.285Z,157.50
2023-10-10T08:18:50.626Z,157.00
2023-10-10T08:19:54.967Z,157.00
2023-10-10T08:20:57.990Z,157.00
2023-10-10T08:22:13.496Z,157.00
2023-10-10T08:23:18.044Z,157.00
2023-10-10T08:24:21.424Z,158.00
2023-10-10T08:25:24.606Z,158.67
2023-10-10T08:26:30.990Z,161.33
2023-10-10T08:27:34.572Z,162.33
2023-10-10T08:28:37.626Z,163.17
2023-10-10T08:29:41.686Z,164.50
2023-10-10T08:30:44.815Z,165.00
2023-10-10T08:31:47.849Z,165.00
2023-10-10T08:32:50.914Z,165.00
2023-10-10T08:33:53.961Z,165.00
2023-10-10T08:34:58.011Z,165.00
2023-10-10T08:36:01.034Z,165.00
2023-10-10T08:37:05.170Z,165.83
2023-10-10T08:38:08.378Z,166.67
2023-10-10T08:39:33.589Z,167.00
2023-10-10T08:40:38.132Z,167.17
2023-10-10T08:41:42.576Z,169.33
2023-10-10T08:42:45.608Z,171.67
2023-10-10T08:43:54.541Z,173.00
2023-10-10T08:44:59.698Z,173.17
2023-10-10T08:46:10.059Z,173.67
2023-10-10T08:47:27.005Z,175.17
2023-10-10T08:48:35.492Z,175.00
2023-10-10T08:49:38.702Z,175.00
2023-10-10T08:50:43.953Z,175.00
2023-10-10T08:51:47.057Z,175.00
2023-10-10T08:52:50.069Z,174.50
2023-10-10T08:53:54.863Z,175.00
2023-10-10T08:54:59.899Z,175.00
2023-10-10T08:56:04.441Z,175.00
2023-10-10T08:57:13.675Z,175.83
2023-10-10T08:58:16.698Z,175.33
2023-10-10T08:59:19.762Z,175.00
2023-10-10T09:00:28.367Z,175.00
2023-10-10T09:01:39.733Z,176.17
2023-10-10T09:02:43.063Z,177.17
2023-10-10T09:03:46.849Z,178.00
2023-10-10T09:04:52.083Z,179.33
2023-10-10T09:05:56.888Z,180.00
2023-10-10T09:07:01.739Z,180.00
2023-10-10T09:08:17.603Z,178.83
2023-10-10T09:09:41.098Z,177.17
2023-10-10T09:10:47.372Z,238.83
2023-10-10T09:11:50.858Z,242.50
2023-10-10T09:12:54.539Z,204.83
2023-10-10T09:13:57.865Z,190.33
2023-10-10T09:15:18.446Z,173.83
2023-10-10T09:16:42.834Z,166.83
2023-10-10T09:17:47.279Z,164.67
2023-10-10T09:19:12.803Z,165.17
2023-10-10T09:20:30.291Z,163.00
2023-10-10T09:21:45.627Z,156.33
2023-10-10T09:22:53.181Z,154.33
2023-10-10T09:24:27.551Z,155.17
2023-10-10T09:25:42.996Z,156.83
2023-10-10T09:26:46.166Z,158.17
2023-10-10T09:28:05.104Z,159.17
2023-10-10T09:29:17.380Z,159.33
2023-10-10T09:30:22.364Z,159.00
2023-10-10T09:31:28.186Z,158.00
2023-10-10T09:32:44.056Z,158.00
2023-10-10T09:33:55.621Z,158.83
2023-10-10T09:34:59.300Z,158.50
2023-10-10T09:36:10.719Z,158.50
2023-10-10T09:37:27.177Z,159.00
2023-10-10T09:38:41.907Z,158.67
2023-10-10T09:39:56.829Z,155.00
2023-10-10T09:41:24.109Z,154.00
2023-10-10T09:42:43.963Z,154.00
2023-10-10T09:44:16.210Z,155.00
2023-10-10T09:45:39.924Z,156.50
2023-10-10T09:47:02.941Z,158.00
2023-10-10T09:48:39.343Z,159.00
2023-10-10T09:49:44.424Z,160.00
2023-10-10T09:51:08.254Z,160.00
2023-10-10T09:52:37.563Z,159.17
2023-10-10T09:53:41.386Z,159.50
2023-10-10T09:54:45.994Z,160.67
2023-10-10T09:55:54.585Z,161.67
2023-10-10T09:57:00.228Z,162.17
2023-10-10T09:58:07.958Z,163.00
2023-10-10T09:59:11.668Z,163.83
2023-10-10T10:00:26.817Z,164.50
2023-10-10T10:01:30.714Z,167.17
2023-10-10T10:02:41.865Z,168.83
2023-10-10T10:04:01.454Z,169.00
2023-10-10T10:05:15.176Z,168.00
2023-10-10T10:07:05.951Z,166.83
2023-10-10T10:08:23.325Z,164.00
2023-10-10T10:09:40.138Z,164.00
2023-10-10T10:11:12.427Z,163.00
2023-10-10T10:12:42.509Z,159.83
2023-10-10T10:14:22.057Z,154.00
2023-10-10T10:15:53.621Z,146.67
2023-10-10T10:17:26.215Z,144.33
2023-10-10T10:18:45.761Z,145.50
2023-10-10T10:19:49.864Z,146.67
2023-10-10T10:21:11.368Z,147.33
2023-10-10T10:22:22.833Z,148.50
2023-10-10T10:23:34.431Z,149.50
2023-10-10T10:25:08.911Z,151.67
2023-10-10T10:26:22.716Z,161.17
2023-10-10T10:27:33.136Z,162.00
2023-10-10T10:28:38.098Z,162.00
2023-10-10T10:29:55.208Z,162.17
2023-10-10T10:30:59.425Z,164.00
2023-10-10T10:32:02.627Z,164.50
2023-10-10T10:33:10.941Z,166.67
2023-10-10T10:34:32.650Z,168.17
2023-10-10T10:35:59.344Z,171.83
2023-10-10T10:37:21.352Z,167.83
2023-10-10T10:38:24.957Z,162.83
2023-10-10T10:39:35.817Z,162.00
2023-10-10T10:40:41.623Z,160.83
2023-10-10T10:41:52.985Z,159.67
2023-10-10T10:43:02.107Z,156.17
2023-10-10T10:44:10.308Z,152.00
2023-10-10T10:45:42.014Z,147.67
2023-10-10T10:46:49.539Z,145.83
2023-10-10T10:48:00.851Z,143.00
2023-10-10T10:49:09.144Z,142.17
2023-10-10T10:50:29.912Z,143.33
2023-10-10T10:51:45.788Z,142.17
2023-10-10T10:52:58.432Z,140.50
2023-10-10T10:54:01.428Z,139.17
2023-10-10T10:55:22.780Z,139.83
2023-10-10T10:56:33.151Z,142.00
2023-10-10T10:57:50.194Z,143.17
2023-10-10T10:58:56.607Z,144.00
2023-10-10T10:59:59.721Z,144.00
2023-10-10T11:01:18.035Z,144.17
2023-10-10T11:02:36.856Z,144.17
2023-10-10T11:03:39.994Z,143.00
2023-10-10T11:04:51.527Z,143.50
2023-10-10T11:05:56.416Z,171.00
2023-10-10T11:07:07.030Z,183.67
2023-10-10T11:08:13.266Z,180.83
2023-10-10T11:09:29.825Z,173.50
2023-10-10T11:10:39.164Z,168.67
2023-10-10T11:11:42.410Z,163.33
2023-10-10T11:12:46.015Z,162.50
2023-10-10T11:13:50.207Z,162.00
2023-10-10T11:14:55.165Z,161.50
2023-10-10T11:16:11.953Z,161.00
2023-10-10T11:17:21.167Z,161.67
2023-10-10T11:18:36.332Z,162.00
2023-10-10T11:19:42.327Z,161.83
2023-10-10T11:20:57.939Z,160.17
2023-10-10T11:22:06.744Z,158.83
2023-10-10T11:23:13.627Z,158.00
2023-10-10T11:24:27.694Z,158.00
2023-10-10T11:25:42.839Z,158.00
2023-10-10T11:26:46.212Z,158.00
2023-10-10T11:27:50.266Z,159.00
2023-10-10T11:29:00.421Z,160.17
2023-10-10T11:30:09.867Z,160.00
2023-10-10T11:31:13.427Z,159.50
2023-10-10T11:32:25.370Z,159.17
2023-10-10T11:33:50.061Z,160.00
2023-10-10T11:34:57.810Z,159.17
2023-10-10T11:36:25.798Z,157.50
2023-10-10T11:37:32.508Z,157.00
2023-10-10T11:38:37.031Z,157.00
2023-10-10T11:39:48.153Z,157.00
2023-10-10T11:40:54.136Z,158.67
2023-10-10T11:41:57.215Z,161.17
2023-10-10T11:43:05.796Z,165.83
2023-10-10T11:44:08.818Z,168.00
2023-10-10T11:45:11.980Z,169.00
2023-10-10T11:46:15.633Z,169.33
2023-10-10T11:47:26.111Z,170.67
2023-10-10T11:48:30.649Z,170.00
2023-10-10T11:49:33.736Z,170.00
2023-10-10T11:50:58.511Z,168.67
2023-10-10T11:52:01.739Z,167.00
2023-10-10T11:53:06.979Z,167.00
2023-10-10T11:54:10.000Z,166.17
2023-10-10T11:55:15.390Z,166.00
2023-10-10T11:56:18.713Z,166.67
2023-10-10T11:57:21.819Z,167.83
2023-10-10T11:58:37.494Z,170.67
2023-10-10T11:59:45.509Z,173.00
2023-10-10T12:01:05.354Z,173.00
2023-10-10T12:02:08.929Z,173.00
2023-10-10T12:03:33.870Z,172.50
2023-10-10T12:04:39.104Z,172.00
2023-10-10T12:05:52.033Z,173.00
2023-10-10T12:06:57.165Z,174.00
2023-10-10T12:08:07.663Z,174.00
2023-10-10T12:09:11.977Z,174.00
2023-10-10T12:10:15.613Z,174.00
2023-10-10T12:11:23.251Z,174.00
2023-10-10T12:12:27.142Z,174.50
2023-10-10T12:13:30.157Z,175.50
2023-10-10T12:14:33.518Z,176.00
2023-10-10T12:15:41.434Z,176.83
2023-10-10T12:16:44.499Z,177.00
2023-10-10T12:17:49.207Z,177.00
2023-10-10T12:18:54.091Z,177.00
2023-10-10T12:19:58.073Z,177.33
2023-10-10T12:21:03.637Z,177.50
2023-10-10T12:22:09.957Z,178.00
2023-10-10T12:23:13.366Z,178.00
2023-10-10T12:24:16.541Z,178.00
2023-10-10T12:25:19.716Z,178.83
2023-10-10T12:26:23.742Z,179.00
2023-10-10T12:27:31.333Z,179.33
2023-10-10T12:28:34.564Z,180.33
2023-10-10T12:29:41.451Z,181.00
2023-10-10T12:30:45.399Z,181.83
2023-10-10T12:31:56.768Z,182.00
2023-10-10T12:32:59.993Z,182.00
2023-10-10T12:34:04.054Z,181.50
2023-10-10T12:35:11.366Z,179.50
2023-10-10T12:36:14.352Z,179.00
2023-10-10T12:37:17.368Z,177.33
2023-10-10T12:38:23.869Z,176.00
2023-10-10T12:39:29.634Z,176.67
2023-10-10T12:40:34.770Z,176.00
2023-10-10T12:41:47.439Z,176.00
2023-10-10T12:42:52.094Z,176.00
2023-10-10T12:43:55.142Z,176.00
2023-10-10T12:45:02.471Z,176.00
2023-10-10T12:46:08.641Z,176.00
2023-10-10T12:47:16.964Z,176.00
2023-10-10T12:48:23.041Z,177.83
2023-10-10T12:49:37.716Z,200.67
2023-10-10T12:50:45.442Z,194.67
2023-10-10T12:51:48.780Z,192.00
2023-10-10T12:53:03.337Z,190.17
2023-10-10T12:54:07.446Z,187.67
2023-10-10T12:55:11.365Z,183.83
2023-10-10T12:56:21.466Z,180.67
2023-10-10T12:57:24.853Z,178.00
2023-10-10T12:58:29.316Z,177.00
2023-10-10T12:59:34.670Z,177.00
2023-10-10T13:00:38.896Z,177.00
2023-10-10T13:01:41.920Z,176.50
2023-10-10T13:02:45.883Z,176.67
2023-10-10T13:03:49.491Z,176.67
2023-10-10T13:04:54.119Z,175.50
2023-10-10T13:06:01.689Z,175.00
2023-10-10T13:07:05.752Z,175.00
2023-10-10T13:08:10.409Z,174.17
2023-10-10T13:09:16.198Z,173.00
2023-10-10T13:10:19.225Z,173.00
2023-10-10T13:11:45.150Z,173.00
2023-10-10T13:12:52.797Z,173.17
2023-10-10T13:14:00.582Z,173.00
2023-10-10T13:15:22.611Z,174.00
2023-10-10T13:16:43.858Z,175.00
2023-10-10T13:18:16.765Z,176.17
2023-10-10T13:19:22.028Z,177.83
2023-10-10T13:20:25.168Z,179.33
2023-10-10T13:21:28.266Z,184.50
2023-10-10T13:22:31.717Z,184.50
2023-10-10T13:23:36.763Z,184.83
2023-10-10T13:24:39.784Z,183.33
2023-10-10T13:25:42.824Z,181.17
2023-10-10T13:26:50.896Z,180.00
2023-10-10T13:27:54.095Z,179.50
2023-10-10T13:28:57.984Z,179.83
2023-10-10T13:30:01.027Z,180.00
2023-10-10T13:31:04.312Z,180.00
2023-10-10T13:32:08.074Z,181.17
2023-10-10T13:33:11.788Z,182.67
2023-10-10T13:34:23.740Z,184.50
2023-10-10T13:35:26.949Z,185.83
2023-10-10T13:36:29.972Z,186.50
2023-10-10T13:37:32.973Z,186.33
2023-10-10T13:38:36.056Z,187.83
2023-10-10T13:39:44.720Z,190.83
2023-10-10T13:40:50.480Z,192.17
2023-10-10T13:41:55.697Z,190.67
2023-10-10T13:43:00.965Z,190.00
2023-10-10T13:44:05.532Z,188.83
2023-10-10T13:45:12.313Z,187.67
2023-10-10T13:46:17.264Z,185.33
2023-10-10T13:47:20.330Z,185.00
2023-10-10T13:48:25.780Z,185.00
2023-10-10T13:49:28.856Z,185.67
2023-10-10T13:50:44.562Z,186.50
2023-10-10T13:51:53.113Z,187.00
2023-10-10T13:52:56.133Z,187.50
2023-10-10T13:53:59.193Z,188.67
2023-10-10T13:55:02.259Z,192.67
2023-10-10T13:56:05.300Z,197.50
2023-10-10T13:57:08.962Z,203.00
2023-10-10T13:58:14.686Z,221.83
2023-10-10T13:59:18.509Z,219.00
2023-10-10T14:00:31.024Z,215.00
2023-10-10T14:01:41.433Z,215.00
2023-10-10T14:02:46.599Z,213.50
2023-10-10T14:03:50.277Z,213.50
2023-10-10T14:04:53.580Z,214.83
2023-10-10T14:06:17.584Z,216.50
2023-10-10T14:07:20.582Z,215.50
2023-10-10T14:08:23.575Z,215.50
2023-10-10T14:09:26.692Z,215.17
2023-10-10T14:10:39.133Z,220.33
2023-10-10T14:11:42.162Z,227.83
2023-10-10T14:12:45.496Z,233.33
2023-10-10T14:13:56.296Z,231.50
2023-10-10T14:14:59.355Z,229.50
2023-10-10T14:16:02.914Z,229.33
2023-10-10T14:17:08.960Z,229.00
2023-10-10T14:18:12.638Z,230.00
2023-10-10T14:19:15.704Z,229.67
2023-10-10T14:20:22.360Z,228.83
2023-10-10T14:21:28.627Z,228.00
2023-10-10T14:22:41.713Z,230.00
2023-10-10T14:24:14.847Z,240.83
2023-10-10T14:25:18.849Z,237.17
2023-10-10T14:26:27.810Z,233.17
2023-10-10T14:27:31.508Z,223.33
2023-10-10T14:28:35.142Z,217.50
2023-10-10T14:29:44.650Z,215.33
2023-10-10T14:30:50.399Z,212.67
2023-10-10T14:32:00.010Z,211.67
2023-10-10T14:33:05.010Z,212.50
2023-10-10T14:34:08.163Z,213.33
2023-10-10T14:35:13.763Z,214.00
2023-10-10T14:36:18.018Z,214.83